Terminal Aerodrome Forecast
Issued by NWS

Home | Current Version | Previous Version | Text Only | Print | Product List | Glossary On
Versions: 1 2 3 4 5 6 7 8 9 10 11 12 13 14 15 16 17 18 19 20 21 22 23 24 25 26 27 28
544
FTAK31 PANC 290524
TAFAGK
TAF
PAGK 290524Z 2906/3006 19005KT P6SM BKN090
     FM291000 17008KT P6SM SCT060 BKN090
     FM291600 16012G20KT P6SM SCT050 BKN090=

USA.gov is the U.S. government's official web portal to all federal, state and local government web resources and services.